Time;durP1;ratioP1;P1;durP2;ratioP2;P2;SDS_P1;SDS_P2;PMS_P1;PMS_P2;Temp;Humidity;BMP_temperature;BMP_pressure;BME280_temperature;BME280_humidity;BME280_pressure;Samples;Min_cycle;Max_cycle;Signal;HPM_P1;HPM_P2
2021/05/07 00:00:51;;;;;;;17.43;9.00;;;6.80;99.90;;;;;;4207083;28;20024;-58
2021/05/07 00:02:53;;;;;;;15.57;7.87;;;6.90;99.90;;;;;;4206630;28;20105;-60
2021/05/07 00:04:54;;;;;;;14.57;7.70;;;6.90;99.90;;;;;;4207349;28;20036;-59
2021/05/07 00:06:55;;;;;;;17.97;8.70;;;6.90;99.90;;;;;;4206913;28;20048;-58
2021/05/07 00:08:57;;;;;;;12.13;7.30;;;6.90;99.90;;;;;;4207453;28;20453;-60
2021/05/07 00:11:04;;;;;;;14.73;7.13;;;6.90;99.90;;;;;;4206931;28;20050;-60
2021/05/07 00:13:05;;;;;;;17.87;7.77;;;7.00;99.90;;;;;;4208034;28;20036;-60
2021/05/07 00:15:07;;;;;;;12.90;6.77;;;7.00;99.90;;;;;;4206685;28;20423;-58
2021/05/07 00:17:08;;;;;;;13.30;5.77;;;7.00;99.90;;;;;;4207315;28;20032;-60
2021/05/07 00:19:09;;;;;;;13.27;6.80;;;7.10;99.90;;;;;;4206781;28;20807;-59
2021/05/07 00:21:11;;;;;;;12.87;7.53;;;7.10;99.90;;;;;;4207419;28;20037;-58
2021/05/07 00:23:13;;;;;;;15.87;7.27;;;7.20;99.90;;;;;;4206442;28;20496;-60
2021/05/07 00:25:14;;;;;;;14.00;6.97;;;7.20;99.90;;;;;;4206741;28;20024;-63
2021/05/07 00:27:17;;;;;;;13.97;6.90;;;7.20;99.90;;;;;;4207251;28;20048;-60
2021/05/07 00:29:18;;;;;;;16.50;7.70;;;7.30;99.90;;;;;;4205940;28;21001;-60
2021/05/07 00:31:19;;;;;;;18.13;8.63;;;7.30;99.90;;;;;;4207610;28;20043;-60
2021/05/07 00:33:20;;;;;;;12.40;7.07;;;7.30;99.90;;;;;;4205746;28;20109;-56
2021/05/07 00:35:22;;;;;;;11.13;6.83;;;7.40;99.90;;;;;;4207372;28;20434;-61
2021/05/07 00:37:24;;;;;;;12.47;6.37;;;7.40;99.90;;;;;;4206373;28;21086;-57
2021/05/07 00:39:25;;;;;;;12.60;6.83;;;7.40;99.90;;;;;;4206967;28;20020;-60
2021/05/07 00:41:26;;;;;;;11.90;6.20;;;7.40;99.90;;;;;;4206255;28;20105;-57
2021/05/07 00:43:27;;;;;;;13.30;6.80;;;7.30;99.90;;;;;;4205809;28;20052;-58
2021/05/07 00:45:28;;;;;;;11.70;6.60;;;7.40;99.90;;;;;;4206241;28;20054;-59
2021/05/07 00:47:30;;;;;;;23.10;10.07;;;7.30;99.90;;;;;;4206073;28;20058;-60
2021/05/07 00:49:35;;;;;;;16.47;9.40;;;7.30;99.90;;;;;;4206573;28;20444;-61
2021/05/07 00:51:37;;;;;;;18.03;9.23;;;7.30;99.90;;;;;;4206827;28;20044;-60
2021/05/07 00:53:39;;;;;;;19.10;9.30;;;7.30;99.90;;;;;;4206471;28;20353;-61
2021/05/07 00:55:40;;;;;;;20.57;10.77;;;7.30;99.90;;;;;;4206892;28;20044;-58
2021/05/07 00:57:41;;;;;;;12.10;7.93;;;7.30;99.90;;;;;;4205739;28;20040;-61
2021/05/07 00:59:43;;;;;;;18.30;11.33;;;7.30;99.90;;;;;;4206147;28;20032;-62
2021/05/07 01:01:44;;;;;;;13.90;8.47;;;7.30;99.90;;;;;;4206466;28;20133;-61
2021/05/07 01:03:45;;;;;;;14.07;9.80;;;7.30;99.90;;;;;;4205479;28;20044;-62
2021/05/07 01:05:46;;;;;;;16.93;11.13;;;7.40;99.90;;;;;;4206442;28;20048;-59
2021/05/07 01:07:50;;;;;;;16.53;10.87;;;7.40;99.90;;;;;;4205370;28;20086;-54
2021/05/07 01:09:51;;;;;;;15.37;7.60;;;7.40;99.90;;;;;;4206953;28;20094;-61
2021/05/07 01:11:52;;;;;;;11.37;7.67;;;7.40;99.90;;;;;;4205150;28;20032;-58
2021/05/07 01:13:53;;;;;;;11.23;5.50;;;7.40;99.90;;;;;;4207066;28;20035;-59
2021/05/07 01:15:55;;;;;;;14.67;5.60;;;7.40;99.90;;;;;;4206428;28;20032;-60
2021/05/07 01:17:57;;;;;;;9.30;4.87;;;7.40;99.90;;;;;;4206212;28;20083;-60
2021/05/07 01:20:17;;;;;;;8.80;4.73;;;7.40;99.90;;;;;;4205787;28;20096;-58
2021/05/07 01:22:18;;;;;;;9.95;5.13;;;7.40;99.90;;;;;;4205885;28;20036;-59
2021/05/07 01:24:21;;;;;;;11.83;5.53;;;7.40;99.90;;;;;;4205437;28;20476;-58
2021/05/07 01:26:22;;;;;;;15.63;5.53;;;7.40;99.90;;;;;;4206091;28;20052;-57
2021/05/07 01:28:23;;;;;;;8.03;4.87;;;7.30;99.90;;;;;;4205729;28;20089;-61
2021/05/07 01:30:29;;;;;;;8.27;4.33;;;7.30;99.90;;;;;;4205685;28;20036;-58
2021/05/07 01:32:30;;;;;;;8.20;5.13;;;7.30;99.90;;;;;;4206198;28;20848;-61
2021/05/07 01:34:31;;;;;;;13.43;6.27;;;7.20;99.90;;;;;;4205282;28;20028;-61
2021/05/07 01:36:32;;;;;;;13.60;5.27;;;7.10;99.90;;;;;;4206136;28;20040;-55
2021/05/07 01:38:36;;;;;;;12.23;6.60;;;7.10;99.90;;;;;;4205308;28;20134;-59
2021/05/07 01:40:40;;;;;;;9.17;4.80;;;7.00;99.90;;;;;;4206168;28;20036;-59
2021/05/07 01:42:41;;;;;;;11.10;4.97;;;7.00;99.90;;;;;;4205231;28;20438;-57
2021/05/07 01:44:42;;;;;;;9.67;4.87;;;7.00;99.90;;;;;;4206227;28;20421;-58
2021/05/07 01:46:43;;;;;;;9.23;4.07;;;7.00;99.90;;;;;;4205281;28;20643;-59
2021/05/07 01:48:44;;;;;;;7.60;4.60;;;7.00;99.90;;;;;;4206364;28;20081;-55
2021/05/07 01:50:47;;;;;;;9.13;5.20;;;7.00;99.90;;;;;;4205388;28;20044;-58
2021/05/07 01:52:49;;;;;;;8.83;4.67;;;7.10;99.90;;;;;;4206053;28;20468;-57
2021/05/07 01:54:51;;;;;;;8.80;4.87;;;7.10;99.90;;;;;;4205150;28;20156;-57
2021/05/07 01:56:52;;;;;;;10.17;4.87;;;7.10;99.90;;;;;;4204895;28;20027;-57
2021/05/07 01:58:53;;;;;;;13.60;5.17;;;7.10;99.90;;;;;;4205913;28;20028;-57
2021/05/07 02:00:54;;;;;;;5.57;4.17;;;7.10;99.90;;;;;;4205964;28;20044;-60
2021/05/07 02:02:57;;;;;;;7.40;4.80;;;7.20;99.90;;;;;;4205249;28;20093;-60
2021/05/07 02:04:58;;;;;;;8.90;4.70;;;7.20;99.90;;;;;;4205267;28;20027;-56
2021/05/07 02:06:59;;;;;;;13.57;5.77;;;7.30;99.90;;;;;;4205654;28;20410;-58
2021/05/07 02:09:00;;;;;;;17.90;6.80;;;7.30;99.90;;;;;;4205060;28;20024;-57
2021/05/07 02:11:01;;;;;;;8.47;4.80;;;7.30;99.90;;;;;;4205779;28;20530;-59
2021/05/07 02:13:07;;;;;;;16.73;5.60;;;7.30;99.90;;;;;;4205786;28;20044;-63
2021/05/07 02:15:15;;;;;;;9.43;5.13;;;7.30;99.90;;;;;;4205535;28;20484;-57
2021/05/07 02:17:17;;;;;;;10.27;4.60;;;7.30;99.90;;;;;;4204620;28;20036;-62
2021/05/07 02:19:18;;;;;;;8.40;4.80;;;7.30;99.90;;;;;;4206050;28;20048;-59
2021/05/07 02:21:19;;;;;;;5.93;4.20;;;7.40;99.90;;;;;;4204758;28;20097;-58
2021/05/07 02:23:22;;;;;;;10.33;4.80;;;7.30;99.90;;;;;;4205291;28;20549;-60
2021/05/07 02:25:25;;;;;;;12.97;5.47;;;7.30;99.90;;;;;;4205109;28;20097;-60
2021/05/07 02:27:26;;;;;;;9.93;4.97;;;7.20;99.90;;;;;;4205699;28;20475;-60
2021/05/07 02:29:27;;;;;;;9.67;5.23;;;7.20;99.90;;;;;;4204985;28;20093;-59
2021/05/07 02:31:29;;;;;;;9.20;4.80;;;7.20;99.90;;;;;;4204985;28;20425;-54
2021/05/07 02:33:30;;;;;;;12.33;5.60;;;7.20;99.90;;;;;;4205187;28;20798;-57
2021/05/07 02:35:32;;;;;;;10.63;4.90;;;7.30;99.90;;;;;;4205104;28;20040;-59
2021/05/07 02:37:33;;;;;;;8.73;4.57;;;7.30;99.90;;;;;;4204338;28;20943;-60
2021/05/07 02:39:35;;;;;;;9.93;5.00;;;7.40;99.90;;;;;;4204614;28;20073;-61
2021/05/07 02:41:36;;;;;;;11.70;5.20;;;7.40;99.90;;;;;;4203653;28;20074;-56
2021/05/07 02:43:38;;;;;;;10.30;4.63;;;7.40;99.90;;;;;;4205406;28;20035;-55
2021/05/07 02:45:39;;;;;;;11.27;4.63;;;7.40;99.90;;;;;;4204986;28;20036;-60
2021/05/07 02:47:41;;;;;;;10.57;4.63;;;7.40;99.90;;;;;;4204713;28;20073;-59
2021/05/07 02:49:44;;;;;;;6.97;4.07;;;7.40;99.90;;;;;;4205145;28;20045;-59
2021/05/07 02:51:45;;;;;;;10.97;5.20;;;7.40;99.90;;;;;;4204733;28;20054;-52
2021/05/07 02:53:46;;;;;;;8.87;4.53;;;7.40;99.90;;;;;;4206005;28;20090;-58
2021/05/07 02:55:48;;;;;;;7.90;4.50;;;7.40;99.90;;;;;;4204525;28;20028;-60
2021/05/07 02:57:49;;;;;;;7.67;4.80;;;7.40;99.90;;;;;;4205247;28;20024;-59
2021/05/07 02:59:50;;;;;;;9.30;4.60;;;7.50;99.90;;;;;;4204345;28;20027;-59
2021/05/07 03:01:52;;;;;;;8.37;4.70;;;7.50;99.90;;;;;;4204616;28;20028;-52
2021/05/07 03:03:53;;;;;;;16.53;5.07;;;7.50;99.90;;;;;;4205005;28;20093;-60
2021/05/07 03:05:54;;;;;;;11.13;4.97;;;7.60;99.90;;;;;;4204984;28;20089;-60
2021/05/07 03:07:56;;;;;;;10.57;4.40;;;7.60;99.90;;;;;;4205233;28;20442;-59
2021/05/07 03:09:57;;;;;;;8.83;5.33;;;7.60;99.90;;;;;;4204785;28;20541;-60
2021/05/07 03:11:58;;;;;;;10.40;4.83;;;7.60;99.90;;;;;;4204628;28;20082;-61
2021/05/07 03:13:59;;;;;;;9.30;4.63;;;7.60;99.90;;;;;;4205343;28;20504;-58
2021/05/07 03:16:00;;;;;;;8.40;4.77;;;7.60;99.90;;;;;;4205197;28;20032;-59
2021/05/07 03:18:02;;;;;;;9.43;4.37;;;7.60;99.90;;;;;;4204670;28;20040;-58
2021/05/07 03:20:05;;;;;;;20.63;5.17;;;7.70;99.90;;;;;;4206388;28;20426;-59
2021/05/07 03:22:06;;;;;;;11.00;4.07;;;7.70;99.90;;;;;;4206973;28;20039;-53
2021/05/07 03:24:08;;;;;;;7.37;3.80;;;7.80;99.90;;;;;;4207829;28;20040;-60
2021/05/07 03:26:10;;;;;;;10.77;5.87;;;7.80;99.90;;;;;;4207028;28;20040;-59
2021/05/07 03:28:11;;;;;;;8.73;5.03;;;7.80;99.90;;;;;;4208286;28;20024;-59
2021/05/07 03:30:13;;;;;;;8.43;4.60;;;7.80;99.90;;;;;;4207688;28;20101;-59
2021/05/07 03:32:14;;;;;;;13.67;4.83;;;7.80;99.90;;;;;;4207982;28;20097;-59
2021/05/07 03:34:15;;;;;;;13.50;4.67;;;7.80;99.90;;;;;;4207694;28;20446;-57
2021/05/07 03:36:16;;;;;;;9.10;4.17;;;7.80;99.90;;;;;;4207317;28;20061;-59
2021/05/07 03:38:18;;;;;;;8.37;4.30;;;7.80;99.90;;;;;;4207415;28;20036;-58
2021/05/07 03:40:19;;;;;;;12.20;4.83;;;7.70;99.90;;;;;;4206870;28;20112;-59
2021/05/07 03:42:20;;;;;;;8.67;3.97;;;7.80;99.90;;;;;;4207473;28;20062;-59
2021/05/07 03:44:21;;;;;;;6.47;3.83;;;7.80;99.90;;;;;;4207259;28;20434;-59
2021/05/07 03:46:22;;;;;;;8.53;3.97;;;7.70;99.90;;;;;;4207460;28;20534;-59
2021/05/07 03:48:24;;;;;;;8.87;4.33;;;7.70;99.90;;;;;;4207054;28;20081;-59
2021/05/07 03:50:25;;;;;;;8.10;3.57;;;7.70;99.90;;;;;;4207759;28;20032;-58
2021/05/07 03:52:26;;;;;;;11.90;4.83;;;7.70;99.90;;;;;;4206939;28;20027;-60
2021/05/07 03:54:28;;;;;;;11.90;5.87;;;7.60;99.90;;;;;;4207400;28;20069;-58
2021/05/07 03:56:30;;;;;;;11.10;4.60;;;7.70;99.90;;;;;;4207031;28;20093;-58
2021/05/07 03:58:31;;;;;;;8.00;4.67;;;7.70;99.90;;;;;;4207455;28;20077;-60
2021/05/07 04:00:32;;;;;;;9.37;4.60;;;7.70;99.90;;;;;;4206307;28;20520;-59
2021/05/07 04:02:33;;;;;;;8.90;4.20;;;7.80;99.90;;;;;;4207560;28;20870;-61
2021/05/07 04:04:36;;;;;;;16.10;4.20;;;7.90;99.90;;;;;;4206562;28;20445;-59
2021/05/07 04:06:38;;;;;;;8.20;4.50;;;7.90;99.90;;;;;;4205994;28;20085;-59
2021/05/07 04:08:42;;;;;;;7.23;3.60;;;7.90;99.90;;;;;;4206904;28;20036;-58
2021/05/07 04:10:47;;;;;;;7.00;3.90;;;8.00;99.90;;;;;;4206938;28;20032;-60
2021/05/07 04:14:49;;;;;;;9.80;3.73;;;8.00;99.90;;;;;;4206907;28;20447;-60
2021/05/07 04:16:50;;;;;;;8.63;3.90;;;8.00;99.90;;;;;;4206940;28;20032;-61
2021/05/07 04:18:55;;;;;;;9.53;4.70;;;8.10;99.90;;;;;;4206543;28;20104;-58
2021/05/07 04:20:57;;;;;;;9.07;4.50;;;8.10;99.90;;;;;;4207004;28;20040;-59
2021/05/07 04:22:58;;;;;;;10.23;4.37;;;8.10;99.90;;;;;;4206483;28;20032;-59
2021/05/07 04:24:59;;;;;;;6.90;3.80;;;8.10;99.90;;;;;;4206882;28;20032;-58
2021/05/07 04:27:00;;;;;;;9.07;3.97;;;8.10;99.90;;;;;;4205945;28;20040;-61
2021/05/07 04:29:03;;;;;;;6.93;3.87;;;8.10;99.90;;;;;;4207244;28;20041;-59
2021/05/07 04:31:04;;;;;;;7.07;4.30;;;8.20;99.90;;;;;;4205792;28;20781;-60
2021/05/07 04:33:06;;;;;;;12.23;3.63;;;8.20;99.90;;;;;;4205766;28;20027;-62
2021/05/07 04:35:08;;;;;;;5.77;3.70;;;8.20;99.90;;;;;;4187426;28;20102;-60
2021/05/07 04:37:09;;;;;;;7.50;4.50;;;8.20;99.90;;;;;;4206759;28;20028;-59
2021/05/07 04:39:10;;;;;;;7.90;4.57;;;8.20;99.90;;;;;;4206018;28;20044;-61
2021/05/07 04:41:11;;;;;;;11.03;4.40;;;8.20;99.90;;;;;;4205477;28;20032;-58
2021/05/07 04:43:12;;;;;;;27.67;5.20;;;8.20;99.90;;;;;;4206235;28;20085;-59
2021/05/07 04:45:14;;;;;;;6.97;4.10;;;8.30;99.90;;;;;;4206266;28;20106;-61
2021/05/07 04:47:15;;;;;;;8.43;4.63;;;8.30;99.90;;;;;;4205739;28;20037;-60
2021/05/07 04:49:16;;;;;;;9.17;4.27;;;8.30;99.90;;;;;;4197433;28;20032;-58
2021/05/07 04:51:17;;;;;;;8.43;5.03;;;8.40;99.90;;;;;;4200381;28;20032;-59
2021/05/07 04:53:18;;;;;;;9.07;4.30;;;8.40;99.90;;;;;;4206306;28;20048;-60
2021/05/07 04:55:20;;;;;;;11.83;4.50;;;8.40;99.90;;;;;;4206751;28;20044;-60
2021/05/07 04:57:21;;;;;;;15.10;5.80;;;8.50;99.90;;;;;;4206134;28;20081;-60
2021/05/07 04:59:22;;;;;;;7.93;4.17;;;8.50;99.90;;;;;;4206418;28;20073;-60
2021/05/07 05:01:23;;;;;;;8.23;4.30;;;8.60;99.90;;;;;;4205801;28;20031;-54
2021/05/07 05:03:24;;;;;;;14.53;4.67;;;8.70;99.90;;;;;;4205500;28;20106;-60
2021/05/07 05:05:25;;;;;;;9.40;5.80;;;8.80;99.90;;;;;;4205227;28;20494;-59
2021/05/07 05:07:26;;;;;;;8.27;5.00;;;8.90;99.90;;;;;;4206208;28;20044;-59
2021/05/07 05:09:27;;;;;;;10.50;5.30;;;9.00;99.90;;;;;;4205813;28;20024;-59
2021/05/07 05:11:28;;;;;;;13.70;4.40;;;9.00;99.90;;;;;;4206616;28;20458;-61
2021/05/07 05:13:30;;;;;;;16.30;5.97;;;9.10;99.90;;;;;;4206196;28;20044;-60
2021/05/07 05:15:31;;;;;;;14.23;5.07;;;9.20;99.90;;;;;;4204592;28;20028;-61
2021/05/07 05:17:32;;;;;;;11.03;5.43;;;9.30;99.90;;;;;;4205512;28;20035;-61
2021/05/07 05:19:33;;;;;;;11.97;5.70;;;9.30;99.90;;;;;;4203571;28;20040;-61
2021/05/07 05:21:34;;;;;;;29.23;6.73;;;9.30;99.90;;;;;;4205546;28;20036;-60
2021/05/07 05:23:40;;;;;;;13.10;6.60;;;9.30;99.90;;;;;;4203716;28;20101;-58
2021/05/07 05:25:41;;;;;;;19.40;7.20;;;9.40;99.90;;;;;;4204638;28;20032;-60
2021/05/07 05:27:42;;;;;;;25.87;7.10;;;9.50;99.90;;;;;;4204738;28;20031;-60
2021/05/07 05:29:44;;;;;;;11.73;5.33;;;9.60;99.90;;;;;;4205043;28;20044;-56
2021/05/07 05:31:45;;;;;;;17.57;6.53;;;9.70;99.90;;;;;;4204758;28;20028;-59
2021/05/07 05:33:46;;;;;;;10.60;4.23;;;9.80;99.90;;;;;;4204642;28;20096;-64
2021/05/07 05:35:48;;;;;;;9.77;5.10;;;9.90;99.90;;;;;;4202708;28;20468;-59
2021/05/07 05:37:49;;;;;;;10.93;5.87;;;9.90;99.90;;;;;;4203273;28;20044;-62
2021/05/07 05:39:50;;;;;;;10.47;5.27;;;10.00;99.90;;;;;;4200067;28;20036;-59
2021/05/07 05:41:51;;;;;;;10.13;4.80;;;10.00;99.90;;;;;;4200129;28;20039;-60
2021/05/07 05:43:52;;;;;;;8.40;4.90;;;10.10;99.90;;;;;;4199762;28;20615;-60
2021/05/07 05:45:53;;;;;;;9.77;4.37;;;10.20;99.90;;;;;;4200422;28;20085;-59
2021/05/07 05:48:04;;;;;;;9.73;4.80;;;10.20;99.90;;;;;;4200192;28;20044;-60
2021/05/07 05:50:06;;;;;;;;;;;10.20;99.90;;;;;;4201261;28;20031;-60
2021/05/07 05:52:07;;;;;;;9.40;4.63;;;10.30;99.90;;;;;;4201619;28;19912;-62
2021/05/07 05:54:08;;;;;;;16.23;4.93;;;10.30;99.90;;;;;;4200487;28;20032;-65
2021/05/07 05:56:12;;;;;;;9.80;4.77;;;10.40;99.90;;;;;;4200592;28;20030;-59
2021/05/07 05:58:14;;;;;;;15.20;5.67;;;10.50;99.90;;;;;;4200579;28;20387;-59
2021/05/07 06:00:16;;;;;;;10.13;4.93;;;10.60;99.90;;;;;;4201106;28;20093;-57
2021/05/07 06:02:17;;;;;;;17.27;4.93;;;10.60;99.90;;;;;;4199825;28;20036;-58
2021/05/07 06:04:19;;;;;;;15.23;4.47;;;10.70;99.90;;;;;;4200393;28;20048;-59
2021/05/07 06:06:20;;;;;;;12.67;4.20;;;10.80;99.90;;;;;;4198958;28;20066;-60
2021/05/07 06:08:22;;;;;;;9.63;4.07;;;10.90;99.90;;;;;;4200668;28;20036;-60
2021/05/07 06:10:23;;;;;;;11.13;4.57;;;11.00;99.90;;;;;;4200509;28;20489;-57
2021/05/07 06:12:24;;;;;;;10.73;3.57;;;11.10;99.90;;;;;;4205423;28;20058;-57
2021/05/07 06:14:25;;;;;;;12.20;4.83;;;11.20;99.90;;;;;;4205428;28;20032;-58
2021/05/07 06:16:27;;;;;;;9.17;3.37;;;11.30;99.90;;;;;;4204834;28;20036;-58
2021/05/07 06:18:28;;;;;;;10.93;3.50;;;11.40;99.90;;;;;;4205240;28;20041;-58
2021/05/07 06:20:29;;;;;;;9.10;3.67;;;11.50;99.90;;;;;;4202194;28;20024;-60
2021/05/07 06:22:32;;;;;;;7.67;4.30;;;11.60;99.90;;;;;;4201676;28;20031;-57
2021/05/07 06:24:33;;;;;;;6.90;2.97;;;11.70;99.90;;;;;;4205229;28;20128;-56
2021/05/07 06:26:34;;;;;;;11.13;3.07;;;11.70;99.90;;;;;;4205512;28;20032;-59
2021/05/07 06:28:35;;;;;;;10.43;3.57;;;11.70;99.90;;;;;;4205419;28;20089;-58
2021/05/07 06:30:37;;;;;;;8.47;2.80;;;11.70;99.90;;;;;;4205580;28;20044;-58
2021/05/07 06:32:39;;;;;;;7.43;2.60;;;11.70;99.90;;;;;;4199723;28;20452;-59
2021/05/07 06:34:40;;;;;;;5.20;3.30;;;11.80;99.90;;;;;;4204253;28;20097;-60
2021/05/07 06:36:41;;;;;;;7.60;3.13;;;11.90;99.90;;;;;;4204591;28;20110;-58
2021/05/07 06:38:42;;;;;;;6.13;3.20;;;11.90;99.90;;;;;;4202909;28;20425;-55
2021/05/07 06:40:44;;;;;;;5.43;3.10;;;11.90;99.90;;;;;;4191298;28;20036;-59
2021/05/07 06:42:48;;;;;;;9.97;3.27;;;11.90;99.90;;;;;;4204830;28;20069;-61
2021/05/07 06:44:49;;;;;;;10.03;3.40;;;11.90;99.90;;;;;;4205463;28;20915;-54
2021/05/07 06:46:50;;;;;;;9.07;3.70;;;11.80;99.90;;;;;;4204537;28;20032;-62
2021/05/07 06:48:51;;;;;;;8.77;4.00;;;11.80;99.90;;;;;;4204469;28;20561;-55
2021/05/07 06:50:52;;;;;;;6.23;3.70;;;11.90;99.90;;;;;;4204631;28;20032;-60
2021/05/07 06:52:54;;;;;;;15.60;3.13;;;12.00;99.90;;;;;;4204838;28;20040;-56
2021/05/07 06:54:55;;;;;;;7.83;3.33;;;12.00;99.90;;;;;;4204449;28;20032;-58
2021/05/07 06:56:57;;;;;;;15.10;3.40;;;12.00;99.90;;;;;;4208265;28;20032;-57
2021/05/07 06:58:59;;;;;;;8.03;3.17;;;12.00;99.90;;;;;;4208773;28;20403;-58
2021/05/07 07:01:00;;;;;;;9.30;3.33;;;12.10;99.90;;;;;;4208346;28;20028;-59
2021/05/07 07:03:01;;;;;;;15.97;3.40;;;12.20;99.90;;;;;;4208236;28;20036;-57
2021/05/07 07:05:05;;;;;;;8.17;3.10;;;12.30;99.90;;;;;;4208582;28;20052;-60
2021/05/07 07:07:06;;;;;;;9.57;2.87;;;12.40;99.90;;;;;;4193454;28;20456;-58
2021/05/07 07:09:07;;;;;;;4.40;2.20;;;12.40;99.90;;;;;;4208963;28;20036;-60
2021/05/07 07:11:08;;;;;;;8.87;3.27;;;12.50;99.90;;;;;;4207648;28;20043;-59
2021/05/07 07:13:09;;;;;;;6.47;2.43;;;12.50;99.90;;;;;;4208567;28;20028;-69
2021/05/07 07:15:11;;;;;;;9.57;3.67;;;12.60;99.90;;;;;;4207815;28;20040;-60
2021/05/07 07:17:12;;;;;;;8.43;2.23;;;12.60;99.90;;;;;;4207816;28;20057;-60
2021/05/07 07:19:13;;;;;;;5.97;2.93;;;12.60;99.90;;;;;;4207719;28;20632;-60
2021/05/07 07:21:16;;;;;;;13.60;2.87;;;12.70;99.90;;;;;;4206435;28;20044;-61
2021/05/07 07:23:17;;;;;;;8.83;2.30;;;12.70;99.90;;;;;;4207156;28;20032;-58
2021/05/07 07:25:18;;;;;;;5.30;2.37;;;12.80;99.90;;;;;;4206109;28;20117;-61
2021/05/07 07:27:19;;;;;;;4.07;1.83;;;12.90;99.90;;;;;;4206684;28;20058;-58
2021/05/07 07:29:21;;;;;;;5.73;2.10;;;12.90;99.90;;;;;;4207204;28;20085;-60
2021/05/07 07:31:22;;;;;;;5.70;2.33;;;13.00;99.90;;;;;;4207994;28;20035;-58
2021/05/07 07:33:23;;;;;;;2.77;1.83;;;13.10;99.90;;;;;;4207736;28;20020;-59
2021/05/07 07:35:25;;;;;;;8.10;4.17;;;13.20;99.90;;;;;;4206955;28;20045;-56
2021/05/07 07:37:26;;;;;;;9.77;3.27;;;13.30;99.90;;;;;;4206666;28;20045;-56
2021/05/07 07:39:27;;;;;;;6.63;2.70;;;13.30;99.90;;;;;;4207365;28;20078;-59
2021/05/07 07:41:28;;;;;;;5.57;2.70;;;13.40;99.90;;;;;;4204846;28;20044;-56
2021/05/07 07:43:29;;;;;;;8.07;3.03;;;13.40;99.90;;;;;;4207524;28;20537;-57
2021/05/07 07:45:30;;;;;;;11.07;3.27;;;13.50;99.90;;;;;;4206916;28;20032;-58
2021/05/07 07:47:31;;;;;;;7.90;2.30;;;13.50;99.90;;;;;;4207490;28;20036;-60
2021/05/07 07:49:33;;;;;;;11.07;2.40;;;13.50;99.90;;;;;;4206010;28;20426;-57
2021/05/07 07:51:34;;;;;;;7.80;2.23;;;13.60;99.90;;;;;;4206033;28;20043;-59
2021/05/07 07:53:36;;;;;;;5.37;1.73;;;13.60;99.90;;;;;;4206536;28;20028;-58
2021/05/07 07:55:37;;;;;;;10.47;2.47;;;13.70;99.90;;;;;;4208005;28;20088;-58
2021/05/07 07:57:38;;;;;;;7.87;2.13;;;13.70;99.90;;;;;;4206908;28;20033;-59
2021/05/07 07:59:39;;;;;;;8.47;1.80;;;13.70;99.90;;;;;;4206547;28;20035;-53
2021/05/07 08:01:42;;;;;;;8.43;2.20;;;13.80;99.90;;;;;;4206979;28;20495;-54
2021/05/07 08:03:43;;;;;;;9.23;2.33;;;13.70;99.90;;;;;;4206583;28;20418;-59
2021/05/07 08:05:44;;;;;;;10.87;2.43;;;13.80;99.90;;;;;;4206061;28;20098;-57
2021/05/07 08:07:46;;;;;;;8.70;2.97;;;13.70;99.90;;;;;;4206415;28;20036;-54
2021/05/07 08:09:47;;;;;;;12.17;2.67;;;13.70;99.90;;;;;;4207783;28;20117;-53
2021/05/07 08:11:48;;;;;;;9.17;2.57;;;13.70;99.90;;;;;;4206178;28;20035;-56
2021/05/07 08:13:49;;;;;;;5.20;2.50;;;13.80;99.90;;;;;;4208173;28;20077;-55
2021/05/07 08:15:50;;;;;;;10.60;2.33;;;13.70;99.90;;;;;;4206209;28;20558;-55
2021/05/07 08:17:52;;;;;;;10.73;3.07;;;13.80;99.90;;;;;;4207098;28;20032;-59
2021/05/07 08:19:53;;;;;;;9.37;3.23;;;13.80;99.90;;;;;;4203992;28;20129;-57
2021/05/07 08:21:54;;;;;;;14.33;4.13;;;13.80;99.90;;;;;;4207157;28;20028;-56
2021/05/07 08:23:56;;;;;;;12.33;4.63;;;13.80;99.90;;;;;;4206345;28;20463;-55
2021/05/07 08:25:57;;;;;;;15.00;5.47;;;13.80;99.90;;;;;;4206860;28;20036;-58
2021/05/07 08:27:58;;;;;;;18.77;4.87;;;13.90;99.90;;;;;;4206924;28;20040;-58
2021/05/07 08:30:00;;;;;;;11.97;3.83;;;13.90;99.90;;;;;;4206910;28;20561;-54
2021/05/07 08:32:01;;;;;;;15.27;3.23;;;13.90;99.90;;;;;;4206388;28;20056;-57
2021/05/07 08:34:02;;;;;;;14.67;3.20;;;13.90;99.90;;;;;;4205485;28;20076;-59
2021/05/07 08:36:04;;;;;;;7.33;2.80;;;13.90;99.90;;;;;;4205855;28;20032;-58
2021/05/07 08:38:05;;;;;;;11.70;3.10;;;13.90;99.90;;;;;;4206630;28;20028;-56
2021/05/07 08:40:07;;;;;;;9.47;3.00;;;14.00;99.90;;;;;;4207625;28;20028;-53
2021/05/07 08:42:11;;;;;;;14.93;3.60;;;14.00;99.90;;;;;;4205946;28;20550;-58
2021/05/07 08:44:13;;;;;;;7.53;2.67;;;14.10;99.90;;;;;;4207596;28;20024;-56
2021/05/07 08:46:14;;;;;;;14.37;3.33;;;14.10;99.90;;;;;;4205842;28;20012;-58
2021/05/07 08:48:17;;;;;;;8.97;3.30;;;14.20;99.90;;;;;;4206640;28;20036;-59
2021/05/07 08:50:18;;;;;;;7.73;4.07;;;14.20;99.90;;;;;;4205431;28;20036;-58
2021/05/07 08:52:20;;;;;;;9.53;3.50;;;14.30;99.90;;;;;;4206129;28;20039;-57
2021/05/07 08:54:21;;;;;;;8.53;3.47;;;14.40;99.90;;;;;;4206274;28;20036;-57
2021/05/07 08:56:22;;;;;;;12.63;3.40;;;14.50;99.90;;;;;;4206072;28;20442;-57
2021/05/07 08:58:23;;;;;;;9.00;3.10;;;14.60;99.90;;;;;;4203808;28;20089;-57
2021/05/07 09:00:25;;;;;;;16.33;5.53;;;14.60;99.90;;;;;;4205528;28;20024;-57
2021/05/07 09:02:28;;;;;;;29.33;10.07;;;14.70;99.90;;;;;;4206235;28;20089;-54
2021/05/07 09:04:29;;;;;;;24.97;8.53;;;14.70;99.90;;;;;;4205485;28;20039;-58
2021/05/07 09:06:52;;;;;;;18.60;6.27;;;14.60;99.90;;;;;;4205927;28;20108;-57
2021/05/07 09:08:53;;;;;;;19.53;7.63;;;14.60;99.90;;;;;;4191682;28;20106;-60
2021/05/07 09:11:01;;;;;;;15.67;5.43;;;14.60;99.90;;;;;;4205447;28;20039;-56
2021/05/07 09:13:05;;;;;;;19.57;4.37;;;14.60;99.90;;;;;;4204256;28;20074;-54
2021/05/07 09:15:09;;;;;;;53.83;19.30;;;14.60;99.90;;;;;;4206884;28;20027;-55
2021/05/07 09:17:10;;;;;;;16.47;6.63;;;14.60;99.90;;;;;;4203843;28;20032;-56
2021/05/07 09:19:19;;;;;;;17.77;5.13;;;14.70;99.90;;;;;;4205546;28;20063;-59
2021/05/07 09:21:20;;;;;;;25.03;7.07;;;14.70;99.90;;;;;;4204025;28;20058;-59
2021/05/07 09:23:21;;;;;;;38.67;8.77;;;14.80;99.90;;;;;;4206358;28;20061;-55
2021/05/07 09:25:23;;;;;;;38.33;6.10;;;14.90;99.90;;;;;;4204421;28;20093;-59
2021/05/07 09:27:24;;;;;;;20.37;5.37;;;14.90;99.90;;;;;;4206591;28;20057;-59
2021/05/07 09:29:27;;;;;;;23.87;5.63;;;14.90;99.90;;;;;;4204701;28;20101;-58
2021/05/07 09:31:29;;;;;;;10.77;4.43;;;14.90;99.90;;;;;;4206314;28;20048;-61
2021/05/07 09:33:30;;;;;;;20.07;4.50;;;15.00;99.90;;;;;;4205037;28;20032;-55
2021/05/07 09:35:31;;;;;;;13.30;4.60;;;15.00;99.90;;;;;;4205698;28;20058;-59
2021/05/07 09:37:32;;;;;;;14.57;4.47;;;15.10;99.90;;;;;;4204233;28;20101;-60
2021/05/07 09:39:36;;;;;;;18.20;4.60;;;15.20;99.90;;;;;;4205046;28;20028;-60
2021/05/07 09:41:42;;;;;;;33.13;8.07;;;15.20;99.90;;;;;;4205057;28;20545;-59
2021/05/07 09:43:44;;;;;;;16.73;4.00;;;15.30;99.90;;;;;;4205227;28;20479;-55
2021/05/07 09:45:50;;;;;;;17.17;4.03;;;15.30;99.90;;;;;;4205711;28;20552;-60
2021/05/07 09:47:54;;;;;;;15.50;3.50;;;15.40;99.90;;;;;;4204098;28;20044;-59
2021/05/07 09:50:06;;;;;;;16.95;4.55;;;15.50;99.90;;;;;;4205543;28;20085;-59
2021/05/07 09:52:08;;;;;;;19.33;3.53;;;15.50;99.90;;;;;;4205456;28;20438;-60
2021/05/07 09:54:10;;;;;;;18.00;3.33;;;15.60;99.90;;;;;;4205761;28;20054;-56
2021/05/07 09:56:13;;;;;;;13.35;3.00;;;15.70;99.90;;;;;;4204660;28;20028;-59
2021/05/07 09:58:14;;;;;;;11.18;2.47;;;15.70;99.90;;;;;;4206041;28;20089;-56
2021/05/07 10:00:16;;;;;;;8.43;2.45;;;15.90;99.90;;;;;;4204810;28;20028;-60
2021/05/07 10:02:17;;;;;;;11.68;2.45;;;15.90;99.90;;;;;;4205556;28;20036;-56
2021/05/07 10:04:18;;;;;;;7.90;3.40;;;15.90;99.90;;;;;;4204584;28;20074;-59
2021/05/07 10:06:19;;;;;;;9.10;2.45;;;16.00;99.90;;;;;;4205369;28;20100;-62
2021/05/07 10:08:21;;;;;;;2.80;2.25;;;16.00;99.90;;;;;;4204745;28;20490;-58
2021/05/07 10:10:27;;;;;;;6.15;2.30;;;16.00;99.90;;;;;;4205600;28;20066;-59
2021/05/07 10:12:29;;;;;;;8.60;2.75;;;16.00;99.90;;;;;;4204254;28;20024;-55
2021/05/07 10:14:31;;;;;;;10.18;3.30;;;16.10;99.90;;;;;;4205387;28;20043;-60
2021/05/07 10:16:32;;;;;;;11.13;4.25;;;16.10;99.90;;;;;;4204383;28;20085;-59
2021/05/07 10:18:35;;;;;;;11.13;2.60;;;16.10;99.90;;;;;;4204947;28;20563;-58
2021/05/07 10:20:39;;;;;;;11.32;3.88;;;16.20;99.90;;;;;;4204759;28;20040;-59
2021/05/07 10:22:41;;;;;;;9.23;2.65;;;16.20;99.90;;;;;;4187062;28;20511;-60
2021/05/07 10:24:42;;;;;;;16.15;3.08;;;16.20;99.90;;;;;;4203529;28;20055;-60
2021/05/07 10:26:53;;;;;;;8.55;3.40;;;16.20;99.90;;;;;;4200050;28;20032;-59
2021/05/07 10:28:54;;;;;;;21.42;2.88;;;16.30;99.90;;;;;;4199333;28;20527;-61
2021/05/07 10:31:05;;;;;;;11.95;3.00;;;16.30;99.90;;;;;;4208767;28;20437;-60
2021/05/07 10:33:16;;;;;;;9.07;2.38;;;16.30;99.90;;;;;;4207059;28;20036;-59
2021/05/07 10:35:32;;;;;;;15.13;3.88;;;16.30;99.90;;;;;;4191553;28;20058;-60
2021/05/07 10:37:41;;;;;;;5.65;2.30;;;16.30;99.90;;;;;;4200254;28;20032;-61